METAR Data
IDs: Format: Raw Decoded Include TAF

Data at: 0946 UTC 13 Aug 2022

EFHK 130920Z VRB03KT 9999 SCT037 23/13 Q1023 NOSIG